Time;durP1;ratioP1;P1;durP2;ratioP2;P2;SDS_P1;SDS_P2;PMS_P1;PMS_P2;Temp;Humidity;BMP_temperature;BMP_pressure;BME280_temperature;BME280_humidity;BME280_pressure;Samples;Min_cycle;Max_cycle;Signal;HPM_P1;HPM_P2
2021/07/13 00:02:09;;;;;;;4.22;2.15;;;;;;;;;;5073814;28;20032;-50
2021/07/13 00:04:35;;;;;;;2.33;1.88;;;;;;;;;;5074301;28;20162;-51
2021/07/13 00:07:01;;;;;;;7.03;2.30;;;;;;;;;;5073910;28;20024;-50
2021/07/13 00:09:28;;;;;;;2.53;1.52;;;;;;;;;;5074023;28;20263;-51
2021/07/13 00:11:54;;;;;;;3.50;1.65;;;;;;;;;;5073081;28;20028;-51
2021/07/13 00:14:20;;;;;;;2.50;1.83;;;;;;;;;;5074403;28;20037;-51
2021/07/13 00:16:46;;;;;;;3.58;1.75;;;;;;;;;;5074010;28;20031;-50
2021/07/13 00:19:12;;;;;;;2.00;1.52;;;;;;;;;;5073713;28;20025;-51
2021/07/13 00:21:38;;;;;;;3.13;2.03;;;;;;;;;;5072494;28;20028;-51
2021/07/13 00:24:05;;;;;;;3.65;1.88;;;;;;;;;;5072491;28;20089;-50
2021/07/13 00:26:31;;;;;;;3.92;1.83;;;;;;;;;;5073703;28;20021;-51
2021/07/13 00:28:57;;;;;;;4.03;2.63;;;;;;;;;;5073551;28;20029;-51
2021/07/13 00:31:23;;;;;;;2.25;1.55;;;;;;;;;;5072745;28;20029;-50
2021/07/13 00:33:49;;;;;;;1.67;1.40;;;;;;;;;;5074117;28;20086;-50
2021/07/13 00:36:15;;;;;;;3.35;2.08;;;;;;;;;;5073421;28;20432;-51
2021/07/13 00:38:41;;;;;;;2.17;1.67;;;;;;;;;;5073954;28;20021;-51
2021/07/13 00:41:07;;;;;;;3.38;2.28;;;;;;;;;;5072453;28;20028;-51
2021/07/13 00:43:33;;;;;;;3.92;1.73;;;;;;;;;;5073099;28;20367;-50
2021/07/13 00:46:00;;;;;;;4.18;2.13;;;;;;;;;;5073328;28;20028;-51
2021/07/13 00:48:26;;;;;;;3.10;1.55;;;;;;;;;;5073605;28;20025;-51
2021/07/13 00:50:57;;;;;;;2.95;2.15;;;;;;;;;;5072778;28;20024;-52
2021/07/13 00:53:24;;;;;;;4.22;1.88;;;;;;;;;;5073393;28;20020;-51
2021/07/13 00:55:50;;;;;;;8.18;2.00;;;;;;;;;;5073601;28;20115;-51
2021/07/13 00:58:16;;;;;;;2.45;1.70;;;;;;;;;;5072628;28;20462;-51
2021/07/13 01:00:42;;;;;;;10.35;1.88;;;;;;;;;;5072446;28;20028;-51
2021/07/13 01:03:09;;;;;;;2.83;1.90;;;;;;;;;;5073648;28;20024;-50
2021/07/13 01:05:43;;;;;;;2.92;1.90;;;;;;;;;;5058911;28;20032;-50
2021/07/13 01:08:28;;;;;;;2.53;1.70;;;;;;;;;;5072112;28;20365;-51
2021/07/13 01:11:03;;;;;;;2.10;1.58;;;;;;;;;;5051940;28;20460;-51
2021/07/13 01:13:34;;;;;;;8.23;1.75;;;;;;;;;;5061581;28;20037;-51
2021/07/13 01:16:06;;;;;;;3.33;1.85;;;;;;;;;;5072378;28;20102;-51
2021/07/13 01:18:37;;;;;;;4.13;2.13;;;;;;;;;;5073160;28;20360;-51
2021/07/13 01:21:02;;;;;;;;;;;;;;;;;;5072149;28;20028;-51
2021/07/13 01:23:28;;;;;;;3.08;1.38;;;;;;;;;;5072955;28;20251;-51
2021/07/13 01:26:03;;;;;;;2.53;1.65;;;;;;;;;;5072964;28;20367;-51
2021/07/13 01:28:31;;;;;;;2.53;1.67;;;;;;;;;;5072493;28;20056;-51
2021/07/13 01:31:04;;;;;;;2.35;1.65;;;;;;;;;;5072202;28;20033;-50
2021/07/13 01:33:31;;;;;;;2.13;1.33;;;;;;;;;;5071925;28;20034;-51
2021/07/13 01:36:00;;;;;;;6.97;2.40;;;;;;;;;;5072456;28;20059;-51
2021/07/13 01:38:27;;;;;;;4.03;1.85;;;;;;;;;;5071711;28;20082;-51
2021/07/13 01:40:57;;;;;;;2.38;1.77;;;;;;;;;;5072132;28;20049;-51
2021/07/13 01:43:23;;;;;;;2.70;1.88;;;;;;;;;;5072778;28;20052;-51
2021/07/13 01:45:49;;;;;;;6.15;2.05;;;;;;;;;;5073077;28;20086;-51
2021/07/13 01:48:15;;;;;;;4.45;2.25;;;;;;;;;;5072413;28;20444;-51
2021/07/13 01:50:43;;;;;;;6.78;2.33;;;;;;;;;;5071635;28;20058;-51
2021/07/13 01:53:10;;;;;;;2.88;2.03;;;;;;;;;;5072530;28;20343;-51
2021/07/13 01:55:37;;;;;;;3.83;2.55;;;;;;;;;;5072653;28;20048;-50
2021/07/13 01:58:03;;;;;;;3.90;2.53;;;;;;;;;;5072238;28;20025;-51
2021/07/13 02:00:30;;;;;;;7.45;2.63;;;;;;;;;;5072292;28;20033;-51
2021/07/13 02:02:56;;;;;;;3.20;2.13;;;;;;;;;;5071851;28;20029;-51
2021/07/13 02:05:24;;;;;;;4.53;2.78;;;;;;;;;;5072810;28;20028;-51
2021/07/13 02:07:50;;;;;;;3.88;2.60;;;;;;;;;;5072343;28;20111;-51
2021/07/13 02:10:18;;;;;;;4.43;2.60;;;;;;;;;;5072618;28;20034;-51
2021/07/13 02:12:44;;;;;;;2.45;2.25;;;;;;;;;;5071473;28;20028;-51
2021/07/13 02:15:10;;;;;;;4.60;2.17;;;;;;;;;;5072255;28;20500;-51
2021/07/13 02:17:36;;;;;;;3.28;2.25;;;;;;;;;;5072425;28;20032;-51
2021/07/13 02:20:05;;;;;;;3.17;2.67;;;;;;;;;;5072539;28;20037;-50
2021/07/13 02:22:31;;;;;;;3.45;2.53;;;;;;;;;;5071662;28;20079;-51
2021/07/13 02:24:57;;;;;;;4.43;2.85;;;;;;;;;;5064230;28;20029;-51
2021/07/13 02:27:27;;;;;;;3.25;2.40;;;;;;;;;;5072059;28;20040;-50
2021/07/13 02:29:55;;;;;;;3.00;2.45;;;;;;;;;;5072023;28;20111;-51
2021/07/13 02:32:24;;;;;;;3.05;2.28;;;;;;;;;;5071660;28;20396;-51
2021/07/13 02:34:51;;;;;;;7.00;2.63;;;;;;;;;;5071825;28;20032;-51
2021/07/13 02:37:17;;;;;;;4.88;2.35;;;;;;;;;;5071845;28;20263;-51
2021/07/13 02:39:45;;;;;;;7.32;2.88;;;;;;;;;;5071851;28;20048;-51
2021/07/13 02:42:11;;;;;;;4.55;2.45;;;;;;;;;;5071900;28;20021;-51
2021/07/13 02:44:38;;;;;;;5.22;2.80;;;;;;;;;;5074003;28;20095;-50
2021/07/13 02:47:06;;;;;;;7.05;3.13;;;;;;;;;;5075364;28;20056;-51
2021/07/13 02:49:32;;;;;;;4.65;2.75;;;;;;;;;;5075914;28;20086;-51
2021/07/13 02:51:59;;;;;;;3.40;2.42;;;;;;;;;;5075130;28;20032;-51
2021/07/13 02:54:26;;;;;;;6.03;2.55;;;;;;;;;;5075522;28;20032;-51
2021/07/13 02:56:53;;;;;;;4.20;2.45;;;;;;;;;;5075396;28;20049;-51
2021/07/13 02:59:21;;;;;;;5.00;2.35;;;;;;;;;;5075144;28;20120;-51
2021/07/13 03:01:48;;;;;;;7.20;2.60;;;;;;;;;;5074905;28;20036;-51
2021/07/13 03:04:14;;;;;;;3.20;2.33;;;;;;;;;;5075991;28;20067;-51
2021/07/13 03:06:40;;;;;;;3.08;2.40;;;;;;;;;;5075420;28;20016;-51
2021/07/13 03:09:06;;;;;;;2.85;2.03;;;;;;;;;;5075663;28;20039;-51
2021/07/13 03:11:33;;;;;;;3.88;2.15;;;;;;;;;;5074793;28;20024;-51
2021/07/13 03:14:01;;;;;;;3.38;2.40;;;;;;;;;;5074657;28;20043;-51
2021/07/13 03:16:27;;;;;;;6.03;2.60;;;;;;;;;;5075318;28;20436;-51
2021/07/13 03:18:53;;;;;;;3.75;2.40;;;;;;;;;;5075142;28;20028;-51
2021/07/13 03:21:22;;;;;;;5.45;2.53;;;;;;;;;;5074352;28;20044;-50
2021/07/13 03:23:49;;;;;;;2.85;1.98;;;;;;;;;;5075326;28;20048;-50
2021/07/13 03:26:16;;;;;;;2.63;1.65;;;;;;;;;;5074740;28;20363;-51
2021/07/13 03:28:42;;;;;;;4.40;2.22;;;;;;;;;;5074829;28;20087;-51
2021/07/13 03:31:09;;;;;;;2.13;1.77;;;;;;;;;;5074198;28;20028;-51
2021/07/13 03:33:36;;;;;;;2.20;1.48;;;;;;;;;;5075262;28;20059;-51
2021/07/13 03:36:03;;;;;;;1.77;1.58;;;;;;;;;;5075065;28;20029;-51
2021/07/13 03:38:29;;;;;;;2.50;1.75;;;;;;;;;;5074888;28;20025;-51
2021/07/13 03:40:55;;;;;;;4.07;2.15;;;;;;;;;;5073815;28;20103;-51
2021/07/13 03:43:21;;;;;;;3.63;1.92;;;;;;;;;;5075392;28;20080;-51
2021/07/13 03:45:49;;;;;;;2.90;1.85;;;;;;;;;;5074797;28;20033;-50
2021/07/13 03:48:15;;;;;;;5.47;2.17;;;;;;;;;;5074960;28;20020;-51
2021/07/13 03:50:43;;;;;;;2.30;1.70;;;;;;;;;;5073778;28;20020;-51
2021/07/13 03:53:09;;;;;;;3.22;1.65;;;;;;;;;;5074374;28;20179;-50
2021/07/13 03:55:35;;;;;;;2.38;1.80;;;;;;;;;;5073503;28;20031;-51
2021/07/13 03:58:01;;;;;;;3.45;2.03;;;;;;;;;;5074599;28;20036;-51
2021/07/13 04:00:28;;;;;;;2.22;1.48;;;;;;;;;;5074604;28;20028;-51
2021/07/13 04:02:55;;;;;;;2.50;1.80;;;;;;;;;;5074410;28;20034;-51
2021/07/13 04:05:20;;;;;;;3.90;1.30;;;;;;;;;;5074127;28;20025;-51
2021/07/13 04:07:46;;;;;;;2.30;1.88;;;;;;;;;;5074745;28;20074;-50
2021/07/13 04:10:14;;;;;;;3.08;1.65;;;;;;;;;;5074086;28;20020;-50
2021/07/13 04:12:40;;;;;;;2.00;1.70;;;;;;;;;;5073329;28;20079;-50
2021/07/13 04:15:07;;;;;;;3.40;1.60;;;;;;;;;;5074287;28;20526;-50
2021/07/13 04:17:33;;;;;;;2.42;1.70;;;;;;;;;;5074098;28;20035;-51
2021/07/13 04:19:59;;;;;;;2.08;1.55;;;;;;;;;;5074114;28;20036;-51
2021/07/13 04:22:25;;;;;;;5.63;2.00;;;;;;;;;;5072730;28;20027;-51
2021/07/13 04:24:51;;;;;;;3.90;2.22;;;;;;;;;;5074112;28;20034;-51
2021/07/13 04:27:17;;;;;;;2.50;1.63;;;;;;;;;;5073675;28;20025;-51
2021/07/13 04:29:44;;;;;;;6.32;1.90;;;;;;;;;;5074069;28;20021;-51
2021/07/13 04:32:10;;;;;;;1.98;1.77;;;;;;;;;;5073015;28;20439;-51
2021/07/13 04:34:36;;;;;;;5.72;2.78;;;;;;;;;;5073923;28;20056;-51
2021/07/13 04:37:02;;;;;;;11.88;2.05;;;;;;;;;;5073350;28;20020;-51
2021/07/13 04:39:28;;;;;;;2.83;1.80;;;;;;;;;;5073186;28;20082;-50
2021/07/13 04:41:54;;;;;;;2.95;1.90;;;;;;;;;;5072811;28;20020;-50
2021/07/13 04:44:20;;;;;;;5.85;2.17;;;;;;;;;;5067579;28;20050;-50
2021/07/13 04:46:46;;;;;;;4.57;2.17;;;;;;;;;;5073276;28;20028;-50
2021/07/13 04:49:12;;;;;;;3.47;1.95;;;;;;;;;;5073599;28;20036;-50
2021/07/13 04:51:38;;;;;;;2.80;1.90;;;;;;;;;;5072324;28;20025;-50
2021/07/13 04:54:04;;;;;;;3.13;2.00;;;;;;;;;;5073408;28;20455;-50
2021/07/13 04:56:30;;;;;;;2.85;1.73;;;;;;;;;;5073241;28;20016;-51
2021/07/13 04:58:57;;;;;;;2.53;1.98;;;;;;;;;;5073292;28;20029;-50
2021/07/13 05:01:23;;;;;;;4.30;2.33;;;;;;;;;;5072512;28;20013;-50
2021/07/13 05:03:49;;;;;;;4.07;2.55;;;;;;;;;;5073567;28;20060;-50
2021/07/13 05:06:15;;;;;;;3.08;1.90;;;;;;;;;;5073011;28;20087;-51
2021/07/13 05:08:41;;;;;;;3.70;2.20;;;;;;;;;;5072605;28;20364;-50
2021/07/13 05:11:07;;;;;;;2.67;2.45;;;;;;;;;;5072434;28;20016;-50
2021/07/13 05:13:34;;;;;;;4.82;2.25;;;;;;;;;;5072707;28;21262;-50
2021/07/13 05:16:00;;;;;;;3.42;2.42;;;;;;;;;;5072019;28;20074;-50
2021/07/13 05:18:26;;;;;;;2.88;1.90;;;;;;;;;;5073055;28;20020;-51
2021/07/13 05:21:03;;;;;;;2.75;2.00;;;;;;;;;;5071019;28;20413;-51
2021/07/13 05:23:29;;;;;;;3.35;2.53;;;;;;;;;;5073136;28;20108;-51
2021/07/13 05:25:55;;;;;;;5.43;2.58;;;;;;;;;;5072711;28;20111;-51
2021/07/13 05:28:21;;;;;;;7.82;2.58;;;;;;;;;;5072747;28;20033;-51
2021/07/13 05:30:47;;;;;;;4.20;2.58;;;;;;;;;;5072107;28;20155;-51
2021/07/13 05:33:15;;;;;;;3.72;2.47;;;;;;;;;;5072697;28;20063;-51
2021/07/13 05:35:42;;;;;;;2.17;1.98;;;;;;;;;;5072298;28;20089;-51
2021/07/13 05:38:09;;;;;;;3.55;2.28;;;;;;;;;;5072687;28;20628;-51
2021/07/13 05:40:35;;;;;;;2.47;1.75;;;;;;;;;;5071900;28;20035;-50
2021/07/13 05:43:01;;;;;;;3.10;2.00;;;;;;;;;;5072327;28;20028;-50
2021/07/13 05:45:27;;;;;;;4.72;1.88;;;;;;;;;;5072358;28;20074;-50
2021/07/13 05:47:53;;;;;;;7.07;2.67;;;;;;;;;;5072912;28;20031;-50
2021/07/13 05:50:19;;;;;;;3.70;2.47;;;;;;;;;;5072648;28;20024;-50
2021/07/13 05:52:45;;;;;;;2.80;2.50;;;;;;;;;;5072037;28;20029;-51
2021/07/13 05:55:12;;;;;;;5.63;2.10;;;;;;;;;;5072813;28;20359;-50
2021/07/13 05:57:38;;;;;;;4.68;2.03;;;;;;;;;;5072522;28;20025;-50
2021/07/13 06:00:06;;;;;;;4.47;3.03;;;;;;;;;;5072375;28;20474;-50
2021/07/13 06:02:32;;;;;;;2.08;1.80;;;;;;;;;;5071687;28;20020;-51
2021/07/13 06:04:58;;;;;;;11.88;2.40;;;;;;;;;;5072318;28;20120;-51
2021/07/13 06:07:24;;;;;;;2.10;1.90;;;;;;;;;;5072556;28;20032;-50
2021/07/13 06:09:50;;;;;;;2.97;2.08;;;;;;;;;;5072250;28;20477;-51
2021/07/13 06:12:16;;;;;;;3.30;2.30;;;;;;;;;;5071784;28;20032;-51
2021/07/13 06:14:42;;;;;;;7.45;2.30;;;;;;;;;;5072191;28;20051;-50
2021/07/13 06:17:08;;;;;;;2.35;2.13;;;;;;;;;;5072246;28;20042;-51
2021/07/13 06:19:34;;;;;;;3.67;2.22;;;;;;;;;;5074059;28;20033;-51
2021/07/13 06:22:01;;;;;;;2.78;1.88;;;;;;;;;;5075416;28;20084;-50
2021/07/13 06:24:27;;;;;;;8.70;2.38;;;;;;;;;;5076420;28;20100;-50
2021/07/13 06:26:53;;;;;;;4.18;2.08;;;;;;;;;;5076134;28;20103;-51
2021/07/13 06:29:19;;;;;;;2.45;1.73;;;;;;;;;;5074054;28;20040;-51
2021/07/13 06:31:45;;;;;;;4.90;2.58;;;;;;;;;;5075528;28;20486;-51
2021/07/13 06:34:11;;;;;;;3.08;1.90;;;;;;;;;;5076261;28;20037;-51
2021/07/13 06:36:38;;;;;;;4.25;2.25;;;;;;;;;;5075824;28;20028;-50
2021/07/13 06:39:05;;;;;;;5.60;2.40;;;;;;;;;;5076116;28;20025;-51
2021/07/13 06:41:31;;;;;;;4.68;2.65;;;;;;;;;;5075373;28;20029;-50
2021/07/13 06:43:57;;;;;;;5.65;2.35;;;;;;;;;;5076035;28;20090;-51
2021/07/13 06:46:23;;;;;;;3.55;1.98;;;;;;;;;;5075647;28;20032;-50
2021/07/13 06:48:49;;;;;;;5.72;2.33;;;;;;;;;;5075467;28;20028;-51
2021/07/13 06:51:15;;;;;;;4.35;2.38;;;;;;;;;;5074798;28;20021;-50
2021/07/13 06:53:41;;;;;;;2.97;2.22;;;;;;;;;;5075433;28;20116;-50
2021/07/13 06:56:07;;;;;;;3.58;2.35;;;;;;;;;;5075961;28;20113;-50
2021/07/13 06:58:33;;;;;;;2.90;2.03;;;;;;;;;;5075103;28;20360;-51
2021/07/13 07:00:59;;;;;;;2.75;2.38;;;;;;;;;;5074898;28;20024;-50
2021/07/13 07:03:25;;;;;;;3.58;2.17;;;;;;;;;;5075718;28;20052;-50
2021/07/13 07:05:51;;;;;;;3.28;1.85;;;;;;;;;;5071573;28;20024;-51
2021/07/13 07:08:17;;;;;;;2.90;1.85;;;;;;;;;;5075419;28;20024;-51
2021/07/13 07:10:43;;;;;;;2.97;1.73;;;;;;;;;;5074703;28;20031;-51
2021/07/13 07:13:09;;;;;;;4.55;2.28;;;;;;;;;;5075533;28;20037;-51
2021/07/13 07:15:35;;;;;;;3.33;1.95;;;;;;;;;;5075413;28;20029;-50
2021/07/13 07:18:01;;;;;;;2.30;2.08;;;;;;;;;;5075138;28;20111;-50
2021/07/13 07:20:28;;;;;;;7.80;2.17;;;;;;;;;;5074546;28;20424;-51
2021/07/13 07:22:55;;;;;;;4.53;2.70;;;;;;;;;;5074764;28;20055;-50
2021/07/13 07:25:21;;;;;;;4.18;2.35;;;;;;;;;;5075575;28;20025;-50
2021/07/13 07:27:48;;;;;;;5.03;2.58;;;;;;;;;;5072878;28;20368;-50
2021/07/13 07:30:16;;;;;;;3.67;2.30;;;;;;;;;;5073838;28;20028;-50
2021/07/13 07:32:44;;;;;;;5.18;3.22;;;;;;;;;;5073224;28;20090;-52
2021/07/13 07:35:11;;;;;;;5.35;2.85;;;;;;;;;;5074461;28;20033;-51
2021/07/13 07:37:37;;;;;;;3.63;2.22;;;;;;;;;;5074464;28;20085;-51
2021/07/13 07:40:04;;;;;;;4.28;2.38;;;;;;;;;;5074319;28;20024;-50
2021/07/13 07:42:32;;;;;;;3.67;2.33;;;;;;;;;;5073703;28;20021;-51
2021/07/13 07:44:58;;;;;;;3.17;2.40;;;;;;;;;;5073976;28;20028;-51
2021/07/13 07:47:24;;;;;;;3.45;2.50;;;;;;;;;;5073894;28;20027;-51
2021/07/13 07:49:50;;;;;;;6.07;1.95;;;;;;;;;;5074076;28;20024;-51
2021/07/13 07:52:16;;;;;;;3.78;2.25;;;;;;;;;;5073925;28;20021;-51
2021/07/13 07:54:42;;;;;;;2.63;2.28;;;;;;;;;;5073923;28;20471;-51
2021/07/13 07:57:08;;;;;;;3.30;2.00;;;;;;;;;;5074736;28;20028;-51
2021/07/13 07:59:34;;;;;;;2.10;1.50;;;;;;;;;;5074261;28;20024;-51
2021/07/13 08:02:00;;;;;;;4.82;2.70;;;;;;;;;;5073566;28;20041;-51
2021/07/13 08:04:26;;;;;;;3.03;1.98;;;;;;;;;;5073803;28;20389;-51
2021/07/13 08:06:52;;;;;;;3.67;2.13;;;;;;;;;;5074454;28;20123;-50
2021/07/13 08:09:18;;;;;;;3.63;2.63;;;;;;;;;;5074372;28;20024;-51
2021/07/13 08:11:45;;;;;;;2.47;1.85;;;;;;;;;;5073263;28;20020;-51
2021/07/13 08:14:11;;;;;;;6.60;2.10;;;;;;;;;;5073816;28;20359;-51
2021/07/13 08:16:39;;;;;;;2.35;1.80;;;;;;;;;;5073906;28;20021;-51
2021/07/13 08:19:05;;;;;;;2.63;2.28;;;;;;;;;;5073991;28;20085;-51
2021/07/13 08:21:32;;;;;;;5.70;1.90;;;;;;;;;;5072958;28;20059;-51
2021/07/13 08:23:58;;;;;;;6.03;2.05;;;;;;;;;;5073123;28;20355;-51
2021/07/13 08:26:25;;;;;;;1.90;1.65;;;;;;;;;;5074459;28;20093;-50
2021/07/13 08:28:51;;;;;;;4.18;2.40;;;;;;;;;;5072698;28;20300;-50
2021/07/13 08:31:17;;;;;;;2.33;1.85;;;;;;;;;;5072556;28;20516;-50
2021/07/13 08:33:43;;;;;;;7.80;2.53;;;;;;;;;;5073610;28;20110;-50
2021/07/13 08:36:09;;;;;;;4.32;2.35;;;;;;;;;;5073981;28;20081;-51
2021/07/13 08:38:35;;;;;;;4.50;2.90;;;;;;;;;;5074056;28;20082;-50
2021/07/13 08:41:02;;;;;;;4.13;2.22;;;;;;;;;;5072938;28;20422;-51
2021/07/13 08:43:28;;;;;;;3.70;2.15;;;;;;;;;;5073408;28;20450;-51
2021/07/13 08:45:55;;;;;;;3.85;2.45;;;;;;;;;;5073372;28;20383;-51
2021/07/13 08:48:24;;;;;;;3.45;2.50;;;;;;;;;;5073300;28;20039;-51
2021/07/13 08:50:57;;;;;;;4.55;2.17;;;;;;;;;;5072782;28;20123;-51
2021/07/13 08:53:23;;;;;;;5.63;1.83;;;;;;;;;;5073530;28;20025;-51
2021/07/13 08:55:49;;;;;;;3.78;2.00;;;;;;;;;;5073579;28;20059;-51
2021/07/13 08:58:15;;;;;;;2.08;1.65;;;;;;;;;;5073907;28;20032;-50
2021/07/13 09:00:42;;;;;;;3.22;2.40;;;;;;;;;;5072148;28;20032;-51
2021/07/13 09:03:10;;;;;;;2.10;1.60;;;;;;;;;;5073053;28;20107;-50
2021/07/13 09:05:40;;;;;;;3.55;2.28;;;;;;;;;;5073503;28;20020;-51
2021/07/13 09:08:25;;;;;;;2.13;1.65;;;;;;;;;;5073474;28;20032;-51
2021/07/13 09:11:13;;;;;;;1.50;1.30;;;;;;;;;;5072024;28;20071;-51
2021/07/13 09:13:46;;;;;;;1.65;1.13;;;;;;;;;;5073469;28;20108;-51
2021/07/13 09:16:18;;;;;;;0.80;0.80;;;;;;;;;;5073275;28;20029;-51
2021/07/13 09:18:46;;;;;;;1.95;0.75;;;;;;;;;;5073094;28;20020;-51
2021/07/13 09:21:19;;;;;;;0.55;0.55;;;;;;;;;;5072166;28;20033;-50
2021/07/13 09:24:04;;;;;;;0.60;0.60;;;;;;;;;;5073082;28;20036;-51
2021/07/13 09:26:42;;;;;;;0.55;0.55;;;;;;;;;;5073607;28;20111;-50
2021/07/13 09:29:09;;;;;;;0.70;0.65;;;;;;;;;;5072580;28;20027;-50
2021/07/13 09:31:35;;;;;;;0.50;0.40;;;;;;;;;;5072220;28;20024;-51
2021/07/13 09:34:01;;;;;;;0.40;0.40;;;;;;;;;;5072530;28;20107;-50
2021/07/13 09:36:27;;;;;;;0.43;0.43;;;;;;;;;;5073253;28;20033;-51
2021/07/13 09:38:54;;;;;;;0.40;0.40;;;;;;;;;;5072363;28;20402;-51
2021/07/13 09:41:21;;;;;;;1.13;0.50;;;;;;;;;;5072229;28;20048;-51
2021/07/13 09:43:49;;;;;;;0.90;0.43;;;;;;;;;;5073172;28;20048;-50
2021/07/13 09:46:25;;;;;;;0.63;0.63;;;;;;;;;;5072787;28;20028;-50
2021/07/13 09:49:10;;;;;;;0.60;0.60;;;;;;;;;;5072763;28;20050;-51
2021/07/13 09:51:37;;;;;;;0.93;0.70;;;;;;;;;;5071709;28;20028;-51
2021/07/13 09:54:03;;;;;;;0.45;0.45;;;;;;;;;;5071676;28;20364;-51
2021/07/13 09:56:39;;;;;;;2.28;0.70;;;;;;;;;;5072884;28;20042;-51
2021/07/13 09:59:06;;;;;;;0.93;0.80;;;;;;;;;;5072683;28;20028;-50
2021/07/13 10:01:33;;;;;;;0.50;0.50;;;;;;;;;;5071934;28;20108;-51
2021/07/13 10:03:59;;;;;;;0.50;0.50;;;;;;;;;;5072454;28;20036;-51
2021/07/13 10:06:25;;;;;;;0.60;0.60;;;;;;;;;;5072729;28;20021;-50
2021/07/13 10:08:51;;;;;;;0.40;0.40;;;;;;;;;;5072540;28;20021;-51
2021/07/13 10:11:17;;;;;;;0.70;0.60;;;;;;;;;;5071760;28;20021;-51
2021/07/13 10:13:44;;;;;;;0.73;0.60;;;;;;;;;;5072389;28;20028;-50
2021/07/13 10:16:10;;;;;;;0.40;0.40;;;;;;;;;;5072381;28;20083;-51
2021/07/13 10:18:36;;;;;;;0.30;0.30;;;;;;;;;;5072304;28;20107;-51
2021/07/13 10:21:02;;;;;;;0.30;0.30;;;;;;;;;;5071397;28;20543;-51
2021/07/13 10:23:28;;;;;;;2.45;1.08;;;;;;;;;;5072211;28;20035;-51
2021/07/13 10:25:55;;;;;;;0.38;0.38;;;;;;;;;;5072059;28;20017;-50
2021/07/13 10:28:22;;;;;;;1.27;0.73;;;;;;;;;;5072285;28;20469;-51
2021/07/13 10:30:53;;;;;;;0.50;0.50;;;;;;;;;;5071281;28;20024;-51
2021/07/13 10:33:28;;;;;;;0.40;0.40;;;;;;;;;;5072953;28;20033;-51
2021/07/13 10:35:56;;;;;;;0.40;0.40;;;;;;;;;;5071691;28;20470;-51
2021/07/13 10:38:25;;;;;;;0.40;0.40;;;;;;;;;;5072249;28;20032;-51
2021/07/13 10:40:54;;;;;;;0.28;0.28;;;;;;;;;;5071393;28;20671;-51
2021/07/13 10:43:24;;;;;;;0.30;0.30;;;;;;;;;;5072268;28;20096;-51
2021/07/13 10:46:10;;;;;;;1.05;0.57;;;;;;;;;;5072295;28;20487;-51
2021/07/13 10:48:38;;;;;;;0.40;0.40;;;;;;;;;;5071654;28;20052;-51
2021/07/13 10:51:06;;;;;;;0.65;0.60;;;;;;;;;;5070772;28;20103;-51
2021/07/13 10:53:43;;;;;;;4.68;0.57;;;;;;;;;;5072317;28;20021;-51
2021/07/13 10:56:11;;;;;;;1.95;0.52;;;;;;;;;;5072069;28;20391;-51
2021/07/13 10:58:41;;;;;;;0.40;0.40;;;;;;;;;;5072270;28;20402;-50
2021/07/13 11:01:08;;;;;;;1.15;0.52;;;;;;;;;;5071400;28;20111;-51
2021/07/13 11:03:35;;;;;;;1.65;0.50;;;;;;;;;;5071771;28;20361;-51
2021/07/13 11:06:20;;;;;;;0.32;0.32;;;;;;;;;;5073917;28;20356;-51
2021/07/13 11:08:47;;;;;;;2.33;0.52;;;;;;;;;;5075279;28;20471;-51
2021/07/13 11:11:19;;;;;;;0.52;0.38;;;;;;;;;;5075103;28;20101;-51
2021/07/13 11:13:46;;;;;;;2.33;0.60;;;;;;;;;;5074837;28;20436;-51
2021/07/13 11:16:13;;;;;;;0.88;0.55;;;;;;;;;;5075627;28;20036;-51
2021/07/13 11:18:40;;;;;;;0.93;0.60;;;;;;;;;;5075652;28;20024;-51
2021/07/13 11:21:19;;;;;;;1.70;0.60;;;;;;;;;;5073816;28;20047;-51
2021/07/13 11:23:49;;;;;;;0.93;0.75;;;;;;;;;;5075205;28;20040;-51
2021/07/13 11:26:15;;;;;;;0.77;0.77;;;;;;;;;;5075121;28;20036;-51
2021/07/13 11:28:48;;;;;;;1.17;0.73;;;;;;;;;;5075287;28;20113;-51
2021/07/13 11:31:25;;;;;;;1.02;0.95;;;;;;;;;;5074348;28;20059;-51
2021/07/13 11:33:56;;;;;;;0.73;0.50;;;;;;;;;;5075220;28;20108;-51
2021/07/13 11:36:26;;;;;;;0.98;0.70;;;;;;;;;;5074871;28;20077;-51
2021/07/13 11:38:52;;;;;;;0.82;0.45;;;;;;;;;;5074698;28;20364;-51
2021/07/13 11:41:20;;;;;;;0.45;0.45;;;;;;;;;;5074147;28;20033;-51
2021/07/13 11:43:50;;;;;;;0.50;0.50;;;;;;;;;;5075010;28;20414;-51
2021/07/13 11:46:17;;;;;;;3.50;0.52;;;;;;;;;;5074932;28;20025;-51
2021/07/13 11:49:17;;;;;;;3.95;0.50;;;;;;;;;;5075121;28;20282;-51
2021/07/13 11:51:51;;;;;;;1.43;0.70;;;;;;;;;;5011539;28;20037;-51
2021/07/13 11:54:18;;;;;;;0.45;0.45;;;;;;;;;;5012623;28;20311;-51
2021/07/13 11:56:45;;;;;;;2.70;0.60;;;;;;;;;;5012404;28;20054;-51
2021/07/13 11:59:11;;;;;;;1.02;0.50;;;;;;;;;;5011720;28;20044;-51
2021/07/13 12:01:38;;;;;;;0.70;0.50;;;;;;;;;;5011496;28;20125;-51
2021/07/13 12:04:05;;;;;;;0.73;0.60;;;;;;;;;;5012265;28;20029;-51
2021/07/13 12:06:31;;;;;;;0.85;0.50;;;;;;;;;;5012236;28;20030;-51
2021/07/13 12:08:57;;;;;;;0.40;0.40;;;;;;;;;;5011851;28;20088;-51
2021/07/13 12:11:24;;;;;;;2.00;0.50;;;;;;;;;;5011493;28;20022;-51
2021/07/13 12:13:51;;;;;;;0.75;0.52;;;;;;;;;;5012177;28;20046;-50
2021/07/13 12:16:24;;;;;;;0.32;0.32;;;;;;;;;;5011446;28;20041;-51
2021/07/13 12:18:51;;;;;;;0.50;0.50;;;;;;;;;;5012176;28;20057;-51
2021/07/13 12:21:18;;;;;;;0.68;0.55;;;;;;;;;;5010823;28;20452;-51
2021/07/13 12:23:45;;;;;;;0.57;0.47;;;;;;;;;;5011905;28;20106;-51
2021/07/13 12:26:20;;;;;;;0.30;0.30;;;;;;;;;;5014957;28;20056;-51
2021/07/13 12:29:04;;;;;;;0.32;0.32;;;;;;;;;;5072168;28;20021;-51
2021/07/13 12:31:31;;;;;;;0.40;0.40;;;;;;;;;;5073316;28;20108;-51
2021/07/13 12:33:57;;;;;;;0.40;0.40;;;;;;;;;;5073720;28;20566;-51
2021/07/13 12:36:27;;;;;;;0.30;0.30;;;;;;;;;;5073254;28;20035;-51
2021/07/13 12:38:53;;;;;;;1.75;0.77;;;;;;;;;;5073763;28;20020;-51
2021/07/13 12:41:20;;;;;;;0.60;0.60;;;;;;;;;;5072816;28;20035;-51
2021/07/13 12:43:47;;;;;;;0.50;0.50;;;;;;;;;;5073809;28;20430;-51
2021/07/13 12:46:29;;;;;;;0.40;0.40;;;;;;;;;;5073705;28;20056;-52
2021/07/13 12:48:56;;;;;;;0.55;0.55;;;;;;;;;;5073623;28;20482;-51
2021/07/13 12:51:25;;;;;;;0.50;0.50;;;;;;;;;;5073064;28;20368;-51
2021/07/13 12:54:07;;;;;;;0.50;0.50;;;;;;;;;;5072926;28;20036;-50
2021/07/13 12:56:34;;;;;;;1.40;0.55;;;;;;;;;;5073577;28;20028;-51
2021/07/13 12:59:07;;;;;;;0.30;0.30;;;;;;;;;;5073403;28;20032;-51
2021/07/13 13:01:34;;;;;;;0.40;0.40;;;;;;;;;;5072619;28;20051;-50
2021/07/13 13:04:13;;;;;;;1.50;0.57;;;;;;;;;;5073333;28;20039;-50
2021/07/13 13:06:39;;;;;;;0.73;0.70;;;;;;;;;;5071944;28;20517;-50
2021/07/13 13:09:12;;;;;;;0.80;0.60;;;;;;;;;;5072995;28;20025;-51
2021/07/13 13:11:39;;;;;;;0.47;0.47;;;;;;;;;;5072540;28;20340;-50
2021/07/13 13:14:12;;;;;;;1.40;0.50;;;;;;;;;;5073094;28;20028;-51
2021/07/13 13:16:39;;;;;;;5.90;0.73;;;;;;;;;;5073256;28;20420;-50
2021/07/13 13:19:06;;;;;;;0.73;0.70;;;;;;;;;;5072806;28;20341;-51
2021/07/13 13:21:32;;;;;;;0.70;0.60;;;;;;;;;;5072213;28;20085;-50
2021/07/13 13:24:00;;;;;;;0.73;0.40;;;;;;;;;;5072718;28;20021;-50
2021/07/13 13:26:27;;;;;;;0.50;0.50;;;;;;;;;;5073228;28;20099;-50
2021/07/13 13:28:54;;;;;;;0.50;0.50;;;;;;;;;;5072857;28;20044;-51
2021/07/13 13:31:20;;;;;;;0.65;0.50;;;;;;;;;;5072169;28;20035;-51
2021/07/13 13:33:51;;;;;;;0.40;0.40;;;;;;;;;;5072697;28;20395;-51
2021/07/13 13:36:26;;;;;;;0.60;0.60;;;;;;;;;;5072691;28;20059;-51
2021/07/13 13:41:21;;;;;;;0.50;0.50;;;;;;;;;;5072094;28;20090;-51
2021/07/13 13:43:47;;;;;;;1.08;0.57;;;;;;;;;;5072571;28;20048;-50
2021/07/13 13:46:13;;;;;;;1.02;0.88;;;;;;;;;;5072158;28;20063;-49
2021/07/13 13:48:40;;;;;;;4.28;0.85;;;;;;;;;;5072847;28;20070;-49
2021/07/13 13:51:06;;;;;;;0.73;0.73;;;;;;;;;;5071899;28;20048;-49
2021/07/13 13:53:34;;;;;;;0.63;0.63;;;;;;;;;;5072160;28;20517;-50
2021/07/13 13:56:00;;;;;;;0.40;0.40;;;;;;;;;;5066429;28;20048;-49
2021/07/13 13:58:26;;;;;;;0.70;0.70;;;;;;;;;;5061176;28;20021;-49
2021/07/13 14:00:52;;;;;;;0.52;0.52;;;;;;;;;;5061912;28;20495;-49
2021/07/13 14:03:18;;;;;;;0.60;0.60;;;;;;;;;;5061948;28;20108;-49
2021/07/13 14:05:44;;;;;;;0.95;0.88;;;;;;;;;;5063111;28;20048;-49
2021/07/13 14:08:10;;;;;;;0.65;0.65;;;;;;;;;;5061585;28;20024;-49
2021/07/13 14:10:36;;;;;;;0.60;0.60;;;;;;;;;;5061078;28;20025;-50
2021/07/13 14:13:02;;;;;;;0.63;0.63;;;;;;;;;;5062602;28;20025;-50
2021/07/13 14:15:28;;;;;;;2.05;0.70;;;;;;;;;;5061362;28;20025;-49
2021/07/13 14:17:54;;;;;;;1.17;0.88;;;;;;;;;;5061880;28;20329;-49
2021/07/13 14:20:21;;;;;;;0.80;0.80;;;;;;;;;;5062356;28;20028;-49
2021/07/13 14:22:47;;;;;;;0.80;0.80;;;;;;;;;;5060711;28;20013;-49
2021/07/13 14:25:15;;;;;;;2.55;0.90;;;;;;;;;;5052163;28;20514;-49
2021/07/13 14:27:41;;;;;;;1.33;0.90;;;;;;;;;;5051712;28;20033;-50
2021/07/13 14:30:08;;;;;;;1.30;0.80;;;;;;;;;;5052467;28;20032;-50
2021/07/13 14:32:34;;;;;;;4.70;1.00;;;;;;;;;;5051932;28;20028;-50
2021/07/13 14:35:00;;;;;;;1.67;0.73;;;;;;;;;;5052201;28;20033;-49
2021/07/13 14:37:26;;;;;;;0.80;0.57;;;;;;;;;;5064224;28;20024;-49
2021/07/13 14:39:52;;;;;;;2.83;0.80;;;;;;;;;;5072475;28;20024;-49
2021/07/13 14:42:18;;;;;;;0.93;0.60;;;;;;;;;;5074846;28;20029;-50
2021/07/13 14:44:44;;;;;;;0.95;0.90;;;;;;;;;;5076200;28;20024;-49
2021/07/13 14:47:10;;;;;;;2.25;1.30;;;;;;;;;;5076199;28;20434;-49
2021/07/13 14:49:36;;;;;;;0.80;0.80;;;;;;;;;;5075663;28;20029;-49